createdAt,value
2022-09-17T00:01:39.423Z,97923.14
2022-09-17T00:04:07.448Z,97927.98
2022-09-17T00:06:36.079Z,97931.73
2022-09-17T00:09:07.699Z,97934.14
2022-09-17T00:11:39.185Z,97933.08
2022-09-17T00:14:09.460Z,97931.33
2022-09-17T00:16:43.546Z,97933.95
2022-09-17T00:19:23.006Z,97928.91
2022-09-17T00:21:52.115Z,97930.47
2022-09-17T00:24:21.089Z,97935.53
2022-09-17T00:26:50.468Z,97935.12
2022-09-17T00:29:18.617Z,97935.73
2022-09-17T00:31:47.279Z,97938.56
2022-09-17T00:34:15.475Z,97943.36
2022-09-17T00:36:43.526Z,97945.94
2022-09-17T00:39:13.024Z,97941.48
2022-09-17T00:41:40.920Z,97939.93
2022-09-17T00:44:43.496Z,97937.02
2022-09-17T00:47:27.952Z,97935.45
2022-09-17T00:50:04.673Z,97939.46
2022-09-17T00:52:44.205Z,97942.04
2022-09-17T00:55:26.458Z,97942.64
2022-09-17T00:57:59.058Z,97940.34
2022-09-17T01:00:28.273Z,97933.60
2022-09-17T01:02:56.022Z,97929.55
2022-09-17T01:05:46.524Z,97929.70
2022-09-17T01:08:26.865Z,97930.63
2022-09-17T01:11:07.676Z,97934.92
2022-09-17T01:13:52.315Z,97935.32
2022-09-17T01:16:27.166Z,97932.73
2022-09-17T01:19:35.357Z,97931.29
2022-09-17T01:22:14.508Z,97935.49
2022-09-17T01:25:00.861Z,97930.20
2022-09-17T01:27:58.824Z,97928.69
2022-09-17T01:30:59.691Z,97936.92
2022-09-17T01:33:33.682Z,97936.50
2022-09-17T01:36:37.184Z,97938.69
2022-09-17T01:39:16.083Z,97929.30
2022-09-17T01:41:57.493Z,97932.42
2022-09-17T01:44:38.466Z,97928.42
2022-09-17T01:47:21.318Z,97926.45
2022-09-17T01:49:55.327Z,97928.67
2022-09-17T01:52:26.415Z,97933.50
2022-09-17T01:55:00.479Z,97939.58
2022-09-17T01:57:45.256Z,97934.73
2022-09-17T02:00:18.012Z,97927.64
2022-09-17T02:03:05.848Z,97932.89
2022-09-17T02:05:50.803Z,97937.85
2022-09-17T02:08:26.387Z,97941.65
2022-09-17T02:11:04.770Z,97939.14
2022-09-17T02:13:45.314Z,97946.82
2022-09-17T02:16:36.366Z,97943.98
2022-09-17T02:19:26.205Z,97941.05
2022-09-17T02:22:04.276Z,97945.94
2022-09-17T02:24:43.135Z,97942.71
2022-09-17T02:27:32.772Z,97930.17
2022-09-17T02:30:01.496Z,97924.15
2022-09-17T02:32:29.641Z,97922.59
2022-09-17T02:34:57.741Z,97921.50
2022-09-17T02:37:25.478Z,97917.11
2022-09-17T02:39:54.471Z,97920.51
2022-09-17T02:42:33.555Z,97919.30
2022-09-17T02:45:23.024Z,97920.83
2022-09-17T02:48:19.917Z,97918.36
2022-09-17T02:51:09.953Z,97918.69
2022-09-17T02:54:05.500Z,97922.48
2022-09-17T02:57:26.456Z,97918.95
2022-09-17T03:00:20.788Z,97915.66
2022-09-17T03:02:51.169Z,97917.08
2022-09-17T03:05:21.903Z,97919.38
2022-09-17T03:07:50.995Z,97919.67
2022-09-17T03:10:20.125Z,97926.08
2022-09-17T03:12:48.161Z,97926.55
2022-09-17T03:15:16.129Z,97924.17
2022-09-17T03:17:44.200Z,97922.42
2022-09-17T03:20:12.169Z,97922.30
2022-09-17T03:22:39.842Z,97920.38
2022-09-17T03:25:08.888Z,97915.75
2022-09-17T03:27:36.690Z,97910.66
2022-09-17T03:30:07.028Z,97921.63
2022-09-17T03:32:35.082Z,97924.73
2022-09-17T03:35:03.464Z,97928.14
2022-09-17T03:37:33.165Z,97924.02
2022-09-17T03:40:01.626Z,97929.32
2022-09-17T03:42:29.828Z,97923.61
2022-09-17T03:44:58.050Z,97928.42
2022-09-17T03:47:26.376Z,97925.74
2022-09-17T03:49:54.448Z,97928.80
2022-09-17T03:52:22.732Z,97932.65
2022-09-17T03:54:50.589Z,97933.19
2022-09-17T03:57:18.456Z,97926.89
2022-09-17T03:59:46.320Z,97925.96
2022-09-17T04:02:14.446Z,97928.50
2022-09-17T04:04:42.564Z,97926.19
2022-09-17T04:07:10.944Z,97924.85
2022-09-17T04:09:39.219Z,97922.29
2022-09-17T04:12:07.290Z,97924.08
2022-09-17T04:14:35.156Z,97921.62
2022-09-17T04:17:03.349Z,97917.64
2022-09-17T04:19:31.318Z,97920.00
2022-09-17T04:22:00.439Z,97917.45
2022-09-17T04:24:28.522Z,97911.25
2022-09-17T04:26:56.330Z,97908.15
2022-09-17T04:29:24.003Z,97904.02
2022-09-17T04:31:51.857Z,97904.15
2022-09-17T04:34:19.590Z,97910.52
2022-09-17T04:36:47.488Z,97907.40
2022-09-17T04:39:15.662Z,97910.28
2022-09-17T04:41:43.400Z,97904.31
2022-09-17T04:44:11.289Z,97903.02
2022-09-17T04:46:39.410Z,97905.66
2022-09-17T04:49:09.003Z,97900.90
2022-09-17T04:51:36.836Z,97897.54
2022-09-17T04:54:04.606Z,97893.36
2022-09-17T04:56:33.012Z,97897.25
2022-09-17T04:59:00.944Z,97896.36
2022-09-17T05:01:28.693Z,97899.48
2022-09-17T05:03:56.843Z,97900.64
2022-09-17T05:06:24.649Z,97899.97
2022-09-17T05:08:52.360Z,97906.33
2022-09-17T05:11:20.478Z,97905.40
2022-09-17T05:13:48.670Z,97908.08
2022-09-17T05:16:17.102Z,97908.60
2022-09-17T05:18:45.819Z,97910.34
2022-09-17T05:21:13.486Z,97913.18
2022-09-17T05:23:41.349Z,97916.41
2022-09-17T05:26:09.417Z,97918.98
2022-09-17T05:28:37.487Z,97924.14
2022-09-17T05:31:05.722Z,97924.33
2022-09-17T05:33:34.349Z,97918.36
2022-09-17T05:36:02.898Z,97921.81
2022-09-17T05:38:30.898Z,97912.32
2022-09-17T05:40:58.796Z,97907.73
2022-09-17T05:43:26.733Z,97899.62
2022-09-17T05:45:54.910Z,97902.89
2022-09-17T05:48:23.183Z,97901.85
2022-09-17T05:50:51.255Z,97900.36
2022-09-17T05:53:19.528Z,97906.10
2022-09-17T05:55:48.623Z,97909.42
2022-09-17T05:58:19.079Z,97907.00
2022-09-17T06:00:49.050Z,97908.89
2022-09-17T06:03:19.483Z,97913.77
2022-09-17T06:05:59.246Z,97912.84
2022-09-17T06:08:29.664Z,97914.05
2022-09-17T06:11:02.278Z,97916.39
2022-09-17T06:13:31.250Z,97917.27
2022-09-17T06:16:00.307Z,97921.98
2022-09-17T06:18:30.797Z,97919.09
2022-09-17T06:21:01.336Z,97915.32
2022-09-17T06:23:37.257Z,97917.64
2022-09-17T06:26:06.331Z,97916.08
2022-09-17T06:28:40.623Z,97919.58
2022-09-17T06:31:12.079Z,97922.56
2022-09-17T06:33:40.310Z,97929.33
2022-09-17T06:36:14.004Z,97924.52
2022-09-17T06:38:42.952Z,97919.52
2022-09-17T06:41:12.506Z,97916.29
2022-09-17T06:43:40.747Z,97917.02
2022-09-17T06:46:10.682Z,97916.70
2022-09-17T06:48:39.350Z,97921.98
2022-09-17T06:51:10.797Z,97916.13
2022-09-17T06:53:40.099Z,97916.14
2022-09-17T06:56:09.644Z,97915.03
2022-09-17T06:58:38.377Z,97916.46
2022-09-17T07:01:06.961Z,97919.51
2022-09-17T07:03:35.909Z,97920.54
2022-09-17T07:06:04.992Z,97916.63
2022-09-17T07:08:34.705Z,97918.19
2022-09-17T07:11:02.944Z,97930.36
2022-09-17T07:13:31.116Z,97928.02
2022-09-17T07:16:01.591Z,97924.25
2022-09-17T07:18:31.086Z,97921.92
2022-09-17T07:21:05.005Z,97919.99
2022-09-17T07:23:35.187Z,97918.73
2022-09-17T07:26:12.523Z,97920.39
2022-09-17T07:28:41.961Z,97918.43
2022-09-17T07:31:16.082Z,97916.96
2022-09-17T07:33:45.794Z,97915.88
2022-09-17T07:36:18.279Z,97907.80
2022-09-17T07:38:47.564Z,97911.83
2022-09-17T07:41:17.683Z,97916.95
2022-09-17T07:43:46.092Z,97916.67
2022-09-17T07:46:19.679Z,97920.83
2022-09-17T07:48:49.421Z,97923.45
2022-09-17T07:51:23.190Z,97926.48
2022-09-17T07:53:52.986Z,97928.59
2022-09-17T07:56:22.026Z,97925.25
2022-09-17T07:58:50.908Z,97921.07
2022-09-17T08:01:21.494Z,97919.20
2022-09-17T08:03:52.165Z,97915.32
2022-09-17T08:06:28.481Z,97912.50
2022-09-17T08:08:58.691Z,97910.59
2022-09-17T08:11:54.412Z,97916.96
2022-09-17T08:14:18.060Z,97917.78
2022-09-17T08:16:48.577Z,97908.48
2022-09-17T08:19:20.348Z,97908.95
2022-09-17T08:21:49.442Z,97918.73
2022-09-17T08:24:18.554Z,97917.50
2022-09-17T08:26:46.452Z,97921.02
2022-09-17T08:29:15.443Z,97924.27
2022-09-17T08:31:44.530Z,97921.36
2022-09-17T08:34:15.337Z,97925.02
2022-09-17T08:36:43.891Z,97928.55
2022-09-17T08:39:13.256Z,97931.75
2022-09-17T08:42:00.875Z,97933.98
2022-09-17T08:44:41.154Z,97931.62
2022-09-17T08:47:18.781Z,97918.70
2022-09-17T08:49:57.794Z,97905.09
2022-09-17T08:52:59.551Z,97892.64
2022-09-17T08:55:29.468Z,97887.74
2022-09-17T08:58:22.245Z,97881.83
2022-09-17T09:01:03.610Z,97879.72
2022-09-17T09:04:05.153Z,97882.21
2022-09-17T09:06:42.246Z,97886.44
2022-09-17T09:09:17.040Z,97890.63
2022-09-17T09:11:49.216Z,97898.52
2022-09-17T09:14:24.645Z,97907.86
2022-09-17T09:16:57.553Z,97910.84
2022-09-17T09:19:30.519Z,97904.64
2022-09-17T09:22:25.149Z,97895.06
2022-09-17T09:24:52.809Z,97889.59
2022-09-17T09:27:33.947Z,97901.16
2022-09-17T09:30:11.614Z,97900.11
2022-09-17T09:33:07.416Z,97894.99
2022-09-17T09:35:41.517Z,97888.34
2022-09-17T09:38:09.358Z,97882.23
2022-09-17T09:40:56.895Z,97880.08
2022-09-17T09:44:03.979Z,97884.08
2022-09-17T09:46:52.173Z,97889.73
2022-09-17T09:49:54.732Z,97886.93
2022-09-17T09:52:35.616Z,97873.70
2022-09-17T09:55:17.812Z,97861.64
2022-09-17T09:57:58.750Z,97856.64
2022-09-17T10:00:37.496Z,97867.10
2022-09-17T10:03:23.432Z,97865.84
2022-09-17T10:06:02.182Z,97865.36
2022-09-17T10:08:37.266Z,97867.48
2022-09-17T10:11:16.011Z,97868.70
2022-09-17T10:13:44.011Z,97880.06
2022-09-17T10:16:32.309Z,97890.41
2022-09-17T10:19:06.609Z,97890.31
2022-09-17T10:21:43.484Z,97881.97
2022-09-17T10:24:32.598Z,97875.81
2022-09-17T10:27:07.868Z,97869.84
2022-09-17T10:29:36.855Z,97866.70
2022-09-17T10:32:08.921Z,97866.28
2022-09-17T10:34:41.553Z,97865.10
2022-09-17T10:37:38.301Z,97868.84
2022-09-17T10:40:28.488Z,97867.32
2022-09-17T10:43:11.827Z,97872.92
2022-09-17T10:46:01.266Z,97880.05
2022-09-17T10:49:08.842Z,97879.48
2022-09-17T10:51:41.844Z,97879.51
2022-09-17T10:54:12.996Z,97884.23
2022-09-17T10:56:51.329Z,97880.48
2022-09-17T10:59:45.675Z,97883.31
2022-09-17T11:02:51.150Z,97892.75
2022-09-17T11:05:32.340Z,97897.80
2022-09-17T11:08:40.923Z,97905.58
2022-09-17T11:11:38.691Z,97896.08
2022-09-17T11:14:41.355Z,97890.89
2022-09-17T11:17:13.067Z,97887.51
2022-09-17T11:19:55.499Z,97887.94
2022-09-17T11:23:07.682Z,97886.44
2022-09-17T11:26:04.221Z,97883.90
2022-09-17T11:28:41.690Z,97882.55
2022-09-17T11:31:44.241Z,97883.05
2022-09-17T11:35:00.590Z,97881.15
2022-09-17T11:37:39.977Z,97890.03
2022-09-17T11:40:16.569Z,97890.91
2022-09-17T11:42:56.364Z,97890.53
2022-09-17T11:45:30.961Z,97885.33
2022-09-17T11:48:11.472Z,97886.19
2022-09-17T11:51:03.255Z,97888.11
2022-09-17T11:53:39.947Z,97894.94
2022-09-17T11:56:31.115Z,97894.62
2022-09-17T11:59:16.575Z,97895.25
2022-09-17T12:02:00.541Z,97895.16
2022-09-17T12:04:54.436Z,97892.77
2022-09-17T12:07:46.458Z,97886.40
2022-09-17T12:10:46.008Z,97884.61
2022-09-17T12:13:19.133Z,97881.27
2022-09-17T12:16:03.157Z,97879.81
2022-09-17T12:18:58.285Z,97880.34
2022-09-17T12:21:50.548Z,97874.58
2022-09-17T12:24:26.177Z,97866.36
2022-09-17T12:27:11.861Z,97868.02
2022-09-17T12:30:25.902Z,97868.68
2022-09-17T12:33:16.411Z,97865.44
2022-09-17T12:36:06.055Z,97866.07
2022-09-17T12:39:13.208Z,97865.69
2022-09-17T12:41:50.831Z,97867.09
2022-09-17T12:44:47.516Z,97861.23
2022-09-17T12:47:53.362Z,97862.34
2022-09-17T12:50:47.101Z,97860.70
2022-09-17T12:53:38.321Z,97859.73
2022-09-17T12:56:48.859Z,97854.27
2022-09-17T12:59:19.842Z,97851.45
2022-09-17T13:01:58.435Z,97850.19
2022-09-17T13:05:00.479Z,97844.92
2022-09-17T13:07:52.481Z,97839.52
2022-09-17T13:10:43.794Z,97837.52
2022-09-17T13:13:24.023Z,97838.89
2022-09-17T13:16:25.718Z,97835.15
2022-09-17T13:19:16.536Z,97831.30
2022-09-17T13:21:55.785Z,97826.82
2022-09-17T13:24:30.481Z,97822.48
2022-09-17T13:27:02.158Z,97819.09
2022-09-17T13:29:47.427Z,97817.17
2022-09-17T13:32:34.973Z,97817.16
2022-09-17T13:35:13.161Z,97811.90
2022-09-17T13:37:54.081Z,97807.61
2022-09-17T13:40:29.753Z,97801.80
2022-09-17T13:43:14.573Z,97795.08
2022-09-17T13:46:12.987Z,97794.81
2022-09-17T13:48:49.493Z,97792.73
2022-09-17T13:51:32.796Z,97780.83
2022-09-17T13:54:09.948Z,97778.23
2022-09-17T13:56:48.430Z,97785.70
2022-09-17T13:59:27.742Z,97798.54
2022-09-17T14:02:03.685Z,97803.37
2022-09-17T14:04:40.615Z,97795.17
2022-09-17T14:07:23.958Z,97793.45
2022-09-17T14:09:57.420Z,97794.83
2022-09-17T14:12:42.589Z,97795.48
2022-09-17T14:15:41.884Z,97799.89
2022-09-17T14:18:39.079Z,97800.54
2022-09-17T14:21:14.984Z,97801.68
2022-09-17T14:23:52.994Z,97799.76
2022-09-17T14:26:48.580Z,97794.70
2022-09-17T14:29:42.672Z,97792.43
2022-09-17T14:32:21.634Z,97786.66
2022-09-17T14:34:51.842Z,97783.35
2022-09-17T14:37:24.169Z,97776.86
2022-09-17T14:39:53.689Z,97770.91
2022-09-17T14:42:35.357Z,97765.61
2022-09-17T14:45:12.149Z,97760.11
2022-09-17T14:47:39.884Z,97763.21
2022-09-17T14:50:21.898Z,97761.60
2022-09-17T14:52:51.731Z,97762.70
2022-09-17T14:55:26.822Z,97760.19
2022-09-17T14:57:57.249Z,97758.65
2022-09-17T15:00:39.220Z,97756.91
2022-09-17T15:03:21.631Z,97762.27
2022-09-17T15:05:51.748Z,97772.58
2022-09-17T15:08:25.590Z,97758.66
2022-09-17T15:10:59.606Z,97742.33
2022-09-17T15:13:47.868Z,97729.08
2022-09-17T15:16:31.055Z,97728.45
2022-09-17T15:19:03.771Z,97729.92
2022-09-17T15:21:45.706Z,97728.02
2022-09-17T15:24:35.730Z,97727.96
2022-09-17T15:27:22.263Z,97737.21
2022-09-17T15:30:02.463Z,97751.06
2022-09-17T15:32:34.824Z,97758.55
2022-09-17T15:35:11.495Z,97762.01
2022-09-17T15:38:23.298Z,97763.00
2022-09-17T15:41:11.741Z,97755.91
2022-09-17T15:43:42.017Z,97753.92
2022-09-17T15:46:24.935Z,97759.10
2022-09-17T15:49:04.729Z,97760.84
2022-09-17T15:51:37.495Z,97758.42
2022-09-17T15:54:07.159Z,97758.58
2022-09-17T15:56:42.471Z,97756.90
2022-09-17T15:59:28.046Z,97762.70
2022-09-17T16:02:00.157Z,97764.83
2022-09-17T16:04:32.739Z,97765.88
2022-09-17T16:07:12.841Z,97762.56
2022-09-17T16:09:50.838Z,97767.11
2022-09-17T16:12:24.623Z,97770.56
2022-09-17T16:14:56.134Z,97781.05
2022-09-17T16:17:48.539Z,97790.02
2022-09-17T16:20:24.331Z,97800.16
2022-09-17T16:22:53.573Z,97803.59
2022-09-17T16:25:28.571Z,97803.00
2022-09-17T16:28:10.061Z,97806.29
2022-09-17T16:30:42.065Z,97812.33
2022-09-17T16:33:12.284Z,97811.58
2022-09-17T16:35:43.350Z,97810.93
2022-09-17T16:38:14.164Z,97809.34
2022-09-17T16:40:47.372Z,97809.19
2022-09-17T16:43:16.197Z,97808.06
2022-09-17T16:46:02.290Z,97813.79
2022-09-17T16:48:36.458Z,97815.16
2022-09-17T16:51:12.002Z,97816.88
2022-09-17T16:53:44.629Z,97811.18
2022-09-17T16:56:18.495Z,97813.39
2022-09-17T16:58:46.549Z,97810.30
2022-09-17T17:01:19.473Z,97801.21
2022-09-17T17:03:52.997Z,97798.48
2022-09-17T17:06:26.127Z,97797.55
2022-09-17T17:08:53.844Z,97801.59
2022-09-17T17:11:29.466Z,97799.46
2022-09-17T17:13:58.028Z,97800.73
2022-09-17T17:16:28.956Z,97801.50
2022-09-17T17:18:58.841Z,97803.19
2022-09-17T17:21:27.087Z,97798.58
2022-09-17T17:23:59.044Z,97795.57
2022-09-17T17:26:26.944Z,97803.50
2022-09-17T17:28:54.848Z,97801.61
2022-09-17T17:31:23.688Z,97803.12
2022-09-17T17:33:51.995Z,97806.54
2022-09-17T17:36:19.961Z,97805.48
2022-09-17T17:38:48.660Z,97804.98
2022-09-17T17:41:18.182Z,97798.27
2022-09-17T17:43:45.929Z,97795.27
2022-09-17T17:46:15.282Z,97791.58
2022-09-17T17:48:43.986Z,97786.43
2022-09-17T17:51:13.213Z,97784.79
2022-09-17T17:53:43.945Z,97784.91
2022-09-17T17:56:13.144Z,97788.89
2022-09-17T17:58:41.627Z,97795.28
2022-09-17T18:01:20.685Z,97802.36
2022-09-17T18:03:48.928Z,97798.42
2022-09-17T18:06:18.740Z,97789.89
2022-09-17T18:08:47.662Z,97785.33
2022-09-17T18:11:15.804Z,97783.59
2022-09-17T18:13:43.810Z,97785.27
2022-09-17T18:16:13.902Z,97774.85
2022-09-17T18:18:46.145Z,97763.39
2022-09-17T18:21:23.143Z,97764.92
2022-09-17T18:23:51.826Z,97775.54
2022-09-17T18:26:23.660Z,97778.30
2022-09-17T18:28:53.099Z,97769.49
2022-09-17T18:31:25.863Z,97767.82
2022-09-17T18:34:05.931Z,97767.88
2022-09-17T18:36:36.174Z,97770.16
2022-09-17T18:39:39.852Z,97766.68
2022-09-17T18:41:54.417Z,97764.70
2022-09-17T18:44:22.855Z,97766.24
2022-09-17T18:46:51.846Z,97761.58
2022-09-17T18:49:20.359Z,97762.99
2022-09-17T18:51:48.337Z,97762.50
2022-09-17T18:54:16.328Z,97757.31
2022-09-17T18:56:44.363Z,97759.48
2022-09-17T18:59:12.392Z,97760.95
2022-09-17T19:01:40.355Z,97761.27
2022-09-17T19:04:09.069Z,97772.61
2022-09-17T19:06:37.626Z,97777.68
2022-09-17T19:09:06.772Z,97763.63
2022-09-17T19:11:36.357Z,97751.44
2022-09-17T19:14:04.520Z,97750.40
2022-09-17T19:16:33.259Z,97753.16
2022-09-17T19:19:02.766Z,97755.26
2022-09-17T19:21:31.551Z,97755.65
2022-09-17T19:23:59.886Z,97759.36
2022-09-17T19:26:27.745Z,97765.61
2022-09-17T19:29:03.385Z,97767.08
2022-09-17T19:31:31.278Z,97761.94
2022-09-17T19:34:00.649Z,97771.20
2022-09-17T19:36:29.959Z,97771.16
2022-09-17T19:39:01.465Z,97772.79
2022-09-17T19:41:32.966Z,97771.75
2022-09-17T19:44:01.746Z,97764.66
2022-09-17T19:46:31.911Z,97752.16
2022-09-17T19:49:01.443Z,97754.61
2022-09-17T19:51:30.948Z,97758.63
2022-09-17T19:53:59.574Z,97760.64
2022-09-17T19:56:28.665Z,97762.49
2022-09-17T19:58:57.659Z,97759.56
2022-09-17T20:01:27.092Z,97759.04
2022-09-17T20:03:55.612Z,97758.23
2022-09-17T20:06:24.322Z,97756.91
2022-09-17T20:08:55.141Z,97745.91
2022-09-17T20:11:25.618Z,97740.74
2022-09-17T20:14:03.691Z,97746.73
2022-09-17T20:16:34.330Z,97756.14
2022-09-17T20:19:02.629Z,97761.92
2022-09-17T20:21:31.411Z,97768.02
2022-09-17T20:24:01.113Z,97766.56
2022-09-17T20:26:29.623Z,97764.70
2022-09-17T20:28:58.329Z,97762.21
2022-09-17T20:31:30.359Z,97759.63
2022-09-17T20:34:01.893Z,97759.61
2022-09-17T20:36:33.627Z,97763.83
2022-09-17T20:39:22.650Z,97762.55
2022-09-17T20:41:52.785Z,97767.11
2022-09-17T20:44:21.345Z,97775.63
2022-09-17T20:46:50.516Z,97775.09
2022-09-17T20:49:18.665Z,97774.89
2022-09-17T20:51:47.202Z,97774.68
2022-09-17T20:54:15.245Z,97768.92
2022-09-17T20:56:44.725Z,97767.44
2022-09-17T20:59:18.248Z,97764.21
2022-09-17T21:01:50.620Z,97761.38
2022-09-17T21:04:22.626Z,97756.80
2022-09-17T21:06:53.616Z,97746.37
2022-09-17T21:09:22.673Z,97744.86
2022-09-17T21:11:51.537Z,97747.19
2022-09-17T21:14:21.228Z,97749.67
2022-09-17T21:16:51.392Z,97745.92
2022-09-17T21:19:22.319Z,97741.83
2022-09-17T21:21:55.627Z,97742.88
2022-09-17T21:24:25.386Z,97743.67
2022-09-17T21:26:54.592Z,97738.88
2022-09-17T21:29:23.621Z,97735.55
2022-09-17T21:31:54.162Z,97731.77
2022-09-17T21:34:23.182Z,97725.77
2022-09-17T21:36:53.092Z,97728.03
2022-09-17T21:39:20.855Z,97719.61
2022-09-17T21:41:49.936Z,97721.48
2022-09-17T21:44:18.762Z,97711.58
2022-09-17T21:46:50.916Z,97711.36
2022-09-17T21:49:19.048Z,97709.46
2022-09-17T21:51:47.940Z,97703.55
2022-09-17T21:54:18.611Z,97703.13
2022-09-17T21:56:48.150Z,97699.30
2022-09-17T21:59:17.799Z,97697.02
2022-09-17T22:01:52.136Z,97692.72
2022-09-17T22:04:23.489Z,97692.31
2022-09-17T22:06:54.825Z,97692.42
2022-09-17T22:09:25.877Z,97692.64
2022-09-17T22:11:54.167Z,97696.32
2022-09-17T22:14:25.851Z,97692.35
2022-09-17T22:16:58.817Z,97692.61
2022-09-17T22:19:28.500Z,97685.67
2022-09-17T22:21:59.089Z,97677.88
2022-09-17T22:24:29.375Z,97674.44
2022-09-17T22:26:58.683Z,97669.11
2022-09-17T22:29:32.991Z,97671.77
2022-09-17T22:32:01.057Z,97676.27
2022-09-17T22:34:30.967Z,97669.88
2022-09-17T22:36:59.977Z,97663.52
2022-09-17T22:39:28.145Z,97666.48
2022-09-17T22:41:56.770Z,97661.02
2022-09-17T22:44:25.136Z,97660.15
2022-09-17T22:46:52.911Z,97654.63
2022-09-17T22:49:22.463Z,97658.04
2022-09-17T22:51:51.268Z,97653.53
2022-09-17T22:54:19.663Z,97647.14
2022-09-17T22:56:49.381Z,97647.35
2022-09-17T22:59:18.448Z,97646.00
2022-09-17T23:01:48.717Z,97650.55
2022-09-17T23:04:17.034Z,97655.84
2022-09-17T23:06:45.487Z,97657.29
2022-09-17T23:09:14.830Z,97661.73
2022-09-17T23:11:43.309Z,97658.27
2022-09-17T23:14:13.834Z,97653.52
2022-09-17T23:16:47.741Z,97656.84
2022-09-17T23:19:19.784Z,97660.42
2022-09-17T23:21:47.799Z,97659.34
2022-09-17T23:24:20.927Z,97660.48
2022-09-17T23:26:50.343Z,97660.03
2022-09-17T23:29:20.410Z,97659.23
2022-09-17T23:31:49.304Z,97660.04
2022-09-17T23:34:17.479Z,97654.52
2022-09-17T23:36:45.954Z,97646.47
2022-09-17T23:39:14.875Z,97643.77
2022-09-17T23:41:45.928Z,97640.66
2022-09-17T23:44:16.316Z,97634.79
2022-09-17T23:46:47.757Z,97634.17
2022-09-17T23:49:18.112Z,97628.31
2022-09-17T23:51:47.691Z,97630.14
2022-09-17T23:54:16.464Z,97626.82
2022-09-17T23:56:45.329Z,97623.23
2022-09-17T23:59:14.499Z,97624.88
